Terminal Aerodrome Forecast
Issued by NWS

Home | Current Version | Previous Version | Text Only | Print | Product List | Glossary On
Versions: 1 2 3 4 5 6 7 8 9 10 11 12 13 14 15 16 17 18 19 20 21 22 23 24 25 26 27 28 29 30 31 32 33 34 35 36 37 38 39 40 41 42 43 44 45 46 47 48
000
FTAK31 PAFA 230848 AAB
TAFASC
TAF AMD
PASC 230848Z 2309/2406 09010KT 1 1/2SM BR BKN002
      TEMPO 2309/2312 1/2SM FZFG BKN001
     FM231200 09006KT 1/4SM FG OVC003
     FM232000 06005KT 3SM BR SCT003=

USA.gov is the U.S. government's official web portal to all federal, state and local government web resources and services.